Pride Of Rotterdam — PBAJ — position and weather

sailwx.info

Track history (hours):
 
Tides and Currents Weather Stations Pressure Air Temp Water Temp Dewpoint Dewpoint Depression Visibility Wind Speed Wind Dir Waves Ship Positions

Pride Of Rotterdam

Operator: P&O Ferries

Last reported at 2020-Apr-02 21:24 UTC. Time now 2020-Apr-02 22:30 UTC.
Position N 53°30' E 000°28'.

Length 214 m; draft 5.7 m.

Type: Ship. MMSI: 244980000.

Date/timePositionNaut miles runAvg speedWind from/ knotsBaromVisibWave heightAir tempDewpointWater temp
2020-Apr-02 21:24N 53°30' E 000°28'615.6
2020-Apr-02 21:00N 53°32' E 000°18'2114.1
2020-Apr-02 19:30N 53°42' W 000°14'3 6.4
2020-Apr-02 18:58N 53°44' W 000°17'0 0.0
2020-Apr-02 18:28N 53°44' W 000°17'0 0.0
2020-Apr-02 15:30N 53°44' W 000°17'0 0.0
2020-Apr-02 13:29N 53°44' W 000°17'0 0.0
2020-Apr-02 11:58N 53°44' W 000°17'0 0.0
2020-Apr-02 10:58N 53°44' W 000°17'0 0.0
2020-Apr-02 10:28N 53°44' W 000°17'0 0.0
2020-Apr-02 09:30N 53°44' W 000°17'0 0.0
2020-Apr-02 08:00N 53°44' W 000°17'0 0.0
2020-Apr-02 07:29N 53°44' W 000°17'2 0.9
2020-Apr-02 05:30N 53°43' W 000°15'4514.5
2020-Apr-02 02:26N 53°23' E 000°52'717.3
2020-Apr-02 02:00N 53°19' E 001°02'5217.3
2020-Apr-01 23:00N 52°47' E 002°10'918.3
2020-Apr-01 22:30N 52°41' E 002°22'3718.7
2020-Apr-01 20:31N 52°18' E 003°10'3818.7
2020-Apr-01 18:30N 51°59' E 004°03'4 7.2
2020-Apr-01 17:58N 51°57' E 004°08'0 0.0
2020-Apr-01 17:00N 51°57' E 004°08'0 0.0
2020-Apr-01 16:30N 51°57' E 004°08'0 0.0
2020-Apr-01 10:28N 51°57' E 004°08'0 0.0
2020-Apr-01 08:00N 51°57' E 004°08'0 0.0
2020-Apr-01 07:30N 51°57' E 004°08'16615.8
2020-Mar-31 21:00N 53°29' E 000°21'817.0
2020-Mar-31 20:30N 53°33' E 000°08'18 7.3
2020-Mar-31 18:00N 53°44' W 000°17'0 0.0
2020-Mar-31 16:29N 53°44' W 000°17'0 0.0
2020-Mar-31 15:59N 53°44' W 000°17'0 0.0
2020-Mar-31 11:30N 53°44' W 000°17'0 0.0
2020-Mar-31 11:00N 53°44' W 000°17'0 0.0
2020-Mar-31 10:00N 53°44' W 000°17'0 0.0
2020-Mar-31 09:29N 53°44' W 000°17'0 0.0
2020-Mar-31 08:29N 53°44' W 000°17'0 0.0
2020-Mar-31 07:28N 53°44' W 000°17'0 0.0
2020-Mar-31 06:28N 53°44' W 000°17'9 6.0
2020-Mar-31 05:00N 53°38' W 000°08'816.1
2020-Mar-31 04:31N 53°34' E 000°05'6117.4
2020-Mar-31 01:00N 53°05' E 001°34'2617.6
2020-Mar-30 23:31N 52°48' E 002°08'4717.8
2020-Mar-30 20:51N 52°19' E 003°10'4212.5
2020-Mar-30 17:29N 51°57' E 004°08'0 0.0
2020-Mar-30 16:28N 51°57' E 004°08'0 0.0
2020-Mar-30 14:30N 51°57' E 004°08'0 0.0
2020-Mar-30 14:00N 51°57' E 004°08'0 0.0
2020-Mar-30 11:59N 51°57' E 004°08'0 0.0
2020-Mar-30 10:29N 51°57' E 004°08'0 0.0
2020-Mar-30 08:28N 51°57' E 004°08'0 0.0
2020-Mar-30 07:58N 51°57' E 004°08'2 0.9
2020-Mar-30 06:00N 51°58' E 004°07'815.6
2020-Mar-30 05:30N 52°01' E 003°55'1716.6
2020-Mar-30 04:30N 52°07' E 003°30'4216.8
2020-Mar-30 02:00N 52°32' E 002°34'918.0
2020-Mar-30 01:30N 52°37' E 002°22'5317.6
2020-Mar-29 22:30N 53°03' E 001°06'3818.4
2020-Mar-29 20:27N 53°29' E 000°21'1616.9
2020-Mar-29 19:30N 53°36' W 000°03'714.2
2020-Mar-29 19:00N 53°40' W 000°13'5 4.6
2020-Mar-29 18:00N 53°44' W 000°17'0 0.0
2020-Mar-29 17:30N 53°44' W 000°17'0 0.0
2020-Mar-29 16:30N 53°44' W 000°17'0 0.0
2020-Mar-29 14:29N 53°44' W 000°17'0 0.0
2020-Mar-29 13:28N 53°44' W 000°17'0 0.0
2020-Mar-29 12:58N 53°44' W 000°17'0 0.0
2020-Mar-29 12:28N 53°44' W 000°17'0 0.0
2020-Mar-29 11:28N 53°44' W 000°17'0 0.0
2020-Mar-29 09:00N 53°44' W 000°17'54 9.9
2020-Mar-29 03:30N 53°18' E 001°03'1918.6
2020-Mar-29 02:30N 53°06' E 001°27'4116.6
2020-Mar-29 00:00N 52°41' E 002°22'815.8
2020-Mar-28 23:30N 52°36' E 002°32'4116.2
2020-Mar-28 21:00N 52°12' E 003°25'2214.5
2020-Mar-28 19:31N 52°01' E 003°56'8 2.1
2020-Mar-28 15:28N 51°57' E 004°08'0 0.0
2020-Mar-28 12:30N 51°57' E 004°08'0 0.0
2020-Mar-28 12:00N 51°57' E 004°08'0 0.0
2020-Mar-28 11:29N 51°57' E 004°08'0 0.0
2020-Mar-28 08:28N 51°57' E 004°08'19 9.8
2020-Mar-28 06:30N 52°04' E 003°39'918.3
2020-Mar-28 06:00N 52°09' E 003°26'5317.7
2020-Mar-28 03:01N 52°42' E 002°19'816.2
2020-Mar-28 02:31N 52°47' E 002°09'816.1
2020-Mar-28 02:00N 52°53' E 001°59'1616.3
2020-Mar-28 01:00N 53°03' E 001°37'5916.7
2020-Mar-27 21:30N 53°33' E 000°13'21 4.7
2020-Mar-27 17:00N 53°44' W 000°17'0 0.0
2020-Mar-27 16:30N 53°44' W 000°17'0 0.0
2020-Mar-27 16:00N 53°44' W 000°17'0 0.0
2020-Mar-27 14:59N 53°44' W 000°17'0 0.0
2020-Mar-27 13:29N 53°44' W 000°17'0 0.0
2020-Mar-27 12:28N 53°44' W 000°17'0 0.0
2020-Mar-27 11:58N 53°44' W 000°17'0 0.0
2020-Mar-27 10:30N 53°44' W 000°17'0 0.0
2020-Mar-27 10:00N 53°44' W 000°17'0 0.0
2020-Mar-27 07:59N 53°44' W 000°17'9 4.6
2020-Mar-27 06:00N 53°37' W 000°07'4216.7
2020-Mar-27 03:30N 53°21' E 000°58'10918.2
2020-Mar-26 21:30N 52°13' E 003°20'917.7
2020-Mar-26 21:00N 52°08' E 003°32'25 8.4
2020-Mar-26 17:59N 51°57' E 004°08'0 0.0
2020-Mar-26 17:29N 51°57' E 004°08'0 0.0
2020-Mar-26 14:58N 51°57' E 004°08'0 0.0
2020-Mar-26 13:30N 51°57' E 004°08'0 0.0
2020-Mar-26 10:53N 51°57' E 004°08'0 0.0
2020-Mar-26 09:59N 51°57' E 004°08'0 0.0
2020-Mar-26 09:29N 51°57' E 004°08'0 0.0
2020-Mar-26 07:58N 51°57' E 004°08'0 0.0
2020-Mar-26 07:30N 51°57' E 004°08'2 4.1
2020-Mar-26 07:01N 51°58' E 004°06'815.9
2020-Mar-26 06:30N 52°01' E 003°54'917.1
2020-Mar-26 05:59N 52°04' E 003°40'917.8
2020-Mar-26 05:30N 52°08' E 003°28'1817.9
2020-Mar-26 04:31N 52°19' E 003°04'1817.7
2020-Mar-26 03:30N 52°31' E 002°42'7917.5
2020-Mar-25 23:00N 53°19' E 001°01'4518.0
2020-Mar-25 20:30N 53°38' W 000°09'11 0.8
2020-Mar-25 05:30N 53°33' E 000°09'6917.1
2020-Mar-25 01:30N 52°53' E 001°41'1019.1
2020-Mar-25 01:00N 52°48' E 001°55'918.8
2020-Mar-25 00:30N 52°44' E 002°09'2617.5
2020-Mar-24 23:00N 52°28' E 002°44'2617.5
2020-Mar-24 21:30N 52°14' E 003°20'2617.6
2020-Mar-24 20:00N 52°01' E 003°57'714.9
2020-Mar-24 19:31N 51°57' E 004°08'1 1.3
2020-Mar-24 18:59N 51°57' E 004°08'0 0.0
2020-Mar-24 17:28N 51°57' E 004°08'0 0.0
2020-Mar-24 16:58N 51°57' E 004°08'0 0.0
2020-Mar-24 15:28N 51°57' E 004°08'0 0.0
2020-Mar-24 14:00N 51°57' E 004°08'0 0.0
2020-Mar-24 13:30N 51°57' E 004°08'0 0.0
2020-Mar-24 13:00N 51°57' E 004°08'0 0.0
2020-Mar-24 09:58N 51°57' E 004°08'0 0.0
2020-Mar-24 08:28N 51°57' E 004°08'0 0.0
2020-Mar-24 08:00N 51°57' E 004°08'0 0.0
2020-Mar-24 07:30N 51°57' E 004°08'3015.2
2020-Mar-24 05:30N 52°08' E 003°22'2019.6
2020-Mar-24 04:30N 52°22' E 002°60'5618.7
2020-Mar-24 01:30N 52°58' E 001°49'1818.4
2020-Mar-24 00:30N 53°08' E 001°23'1818.2
2020-Mar-23 23:30N 53°20' E 000°60'  
Track history (hours):
 
Tides and Currents Weather Stations Pressure Air Temp Water Temp Dewpoint Dewpoint Depression Visibility Wind Speed Wind Dir Waves Ship Positions

Pride Of Rotterdam

Operator: P&O Ferries

Last reported at 2020-Apr-02 21:24 UTC. Time now 2020-Apr-02 22:30 UTC.
Position N 53°30' E 000°28'.

Length 214 m; draft 5.7 m.

Type: Ship. MMSI: 244980000.

Date/timePositionNaut miles runAvg speedWind from/ knotsBaromVisibWave heightAir tempDewpointWater temp
2020-Apr-02 21:24N 53°30' E 000°28'615.6
2020-Apr-02 21:00N 53°32' E 000°18'2114.1
2020-Apr-02 19:30N 53°42' W 000°14'3 6.4
2020-Apr-02 18:58N 53°44' W 000°17'0 0.0
2020-Apr-02 18:28N 53°44' W 000°17'0 0.0
2020-Apr-02 15:30N 53°44' W 000°17'0 0.0
2020-Apr-02 13:29N 53°44' W 000°17'0 0.0
2020-Apr-02 11:58N 53°44' W 000°17'0 0.0
2020-Apr-02 10:58N 53°44' W 000°17'0 0.0
2020-Apr-02 10:28N 53°44' W 000°17'0 0.0
2020-Apr-02 09:30N 53°44' W 000°17'0 0.0
2020-Apr-02 08:00N 53°44' W 000°17'0 0.0
2020-Apr-02 07:29N 53°44' W 000°17'2 0.9
2020-Apr-02 05:30N 53°43' W 000°15'4514.5
2020-Apr-02 02:26N 53°23' E 000°52'717.3
2020-Apr-02 02:00N 53°19' E 001°02'5217.3
2020-Apr-01 23:00N 52°47' E 002°10'918.3
2020-Apr-01 22:30N 52°41' E 002°22'3718.7
2020-Apr-01 20:31N 52°18' E 003°10'3818.7
2020-Apr-01 18:30N 51°59' E 004°03'4 7.2
2020-Apr-01 17:58N 51°57' E 004°08'0 0.0
2020-Apr-01 17:00N 51°57' E 004°08'0 0.0
2020-Apr-01 16:30N 51°57' E 004°08'0 0.0
2020-Apr-01 10:28N 51°57' E 004°08'0 0.0
2020-Apr-01 08:00N 51°57' E 004°08'0 0.0
2020-Apr-01 07:30N 51°57' E 004°08'16615.8
2020-Mar-31 21:00N 53°29' E 000°21'817.0
2020-Mar-31 20:30N 53°33' E 000°08'18 7.3
2020-Mar-31 18:00N 53°44' W 000°17'0 0.0
2020-Mar-31 16:29N 53°44' W 000°17'0 0.0
2020-Mar-31 15:59N 53°44' W 000°17'0 0.0
2020-Mar-31 11:30N 53°44' W 000°17'0 0.0
2020-Mar-31 11:00N 53°44' W 000°17'0 0.0
2020-Mar-31 10:00N 53°44' W 000°17'0 0.0
2020-Mar-31 09:29N 53°44' W 000°17'0 0.0
2020-Mar-31 08:29N 53°44' W 000°17'0 0.0
2020-Mar-31 07:28N 53°44' W 000°17'0 0.0
2020-Mar-31 06:28N 53°44' W 000°17'9 6.0
2020-Mar-31 05:00N 53°38' W 000°08'816.1
2020-Mar-31 04:31N 53°34' E 000°05'6117.4
2020-Mar-31 01:00N 53°05' E 001°34'2617.6
2020-Mar-30 23:31N 52°48' E 002°08'4717.8
2020-Mar-30 20:51N 52°19' E 003°10'4212.5
2020-Mar-30 17:29N 51°57' E 004°08'0 0.0
2020-Mar-30 16:28N 51°57' E 004°08'0 0.0
2020-Mar-30 14:30N 51°57' E 004°08'0 0.0
2020-Mar-30 14:00N 51°57' E 004°08'0 0.0
2020-Mar-30 11:59N 51°57' E 004°08'0 0.0
2020-Mar-30 10:29N 51°57' E 004°08'0 0.0
2020-Mar-30 08:28N 51°57' E 004°08'0 0.0
2020-Mar-30 07:58N 51°57' E 004°08'2 0.9
2020-Mar-30 06:00N 51°58' E 004°07'815.6
2020-Mar-30 05:30N 52°01' E 003°55'1716.6
2020-Mar-30 04:30N 52°07' E 003°30'4216.8
2020-Mar-30 02:00N 52°32' E 002°34'918.0
2020-Mar-30 01:30N 52°37' E 002°22'5317.6
2020-Mar-29 22:30N 53°03' E 001°06'3818.4
2020-Mar-29 20:27N 53°29' E 000°21'1616.9
2020-Mar-29 19:30N 53°36' W 000°03'714.2
2020-Mar-29 19:00N 53°40' W 000°13'5 4.6
2020-Mar-29 18:00N 53°44' W 000°17'0 0.0
2020-Mar-29 17:30N 53°44' W 000°17'0 0.0
2020-Mar-29 16:30N 53°44' W 000°17'0 0.0
2020-Mar-29 14:29N 53°44' W 000°17'0 0.0
2020-Mar-29 13:28N 53°44' W 000°17'0 0.0
2020-Mar-29 12:58N 53°44' W 000°17'0 0.0
2020-Mar-29 12:28N 53°44' W 000°17'0 0.0
2020-Mar-29 11:28N 53°44' W 000°17'0 0.0
2020-Mar-29 09:00N 53°44' W 000°17'54 9.9
2020-Mar-29 03:30N 53°18' E 001°03'1918.6
2020-Mar-29 02:30N 53°06' E 001°27'4116.6
2020-Mar-29 00:00N 52°41' E 002°22'815.8
2020-Mar-28 23:30N 52°36' E 002°32'4116.2
2020-Mar-28 21:00N 52°12' E 003°25'2214.5
2020-Mar-28 19:31N 52°01' E 003°56'8 2.1
2020-Mar-28 15:28N 51°57' E 004°08'0 0.0
2020-Mar-28 12:30N 51°57' E 004°08'0 0.0
2020-Mar-28 12:00N 51°57' E 004°08'0 0.0
2020-Mar-28 11:29N 51°57' E 004°08'0 0.0
2020-Mar-28 08:28N 51°57' E 004°08'19 9.8
2020-Mar-28 06:30N 52°04' E 003°39'918.3
2020-Mar-28 06:00N 52°09' E 003°26'5317.7
2020-Mar-28 03:01N 52°42' E 002°19'816.2
2020-Mar-28 02:31N 52°47' E 002°09'816.1
2020-Mar-28 02:00N 52°53' E 001°59'1616.3
2020-Mar-28 01:00N 53°03' E 001°37'5916.7
2020-Mar-27 21:30N 53°33' E 000°13'21 4.7
2020-Mar-27 17:00N 53°44' W 000°17'0 0.0
2020-Mar-27 16:30N 53°44' W 000°17'0 0.0
2020-Mar-27 16:00N 53°44' W 000°17'0 0.0
2020-Mar-27 14:59N 53°44' W 000°17'0 0.0
2020-Mar-27 13:29N 53°44' W 000°17'0 0.0
2020-Mar-27 12:28N 53°44' W 000°17'0 0.0
2020-Mar-27 11:58N 53°44' W 000°17'0 0.0
2020-Mar-27 10:30N 53°44' W 000°17'0 0.0
2020-Mar-27 10:00N 53°44' W 000°17'0 0.0
2020-Mar-27 07:59N 53°44' W 000°17'9 4.6
2020-Mar-27 06:00N 53°37' W 000°07'4216.7
2020-Mar-27 03:30N 53°21' E 000°58'10918.2
2020-Mar-26 21:30N 52°13' E 003°20'917.7
2020-Mar-26 21:00N 52°08' E 003°32'25 8.4
2020-Mar-26 17:59N 51°57' E 004°08'0 0.0
2020-Mar-26 17:29N 51°57' E 004°08'0 0.0
2020-Mar-26 14:58N 51°57' E 004°08'0 0.0
2020-Mar-26 13:30N 51°57' E 004°08'0 0.0
2020-Mar-26 10:53N 51°57' E 004°08'0 0.0
2020-Mar-26 09:59N 51°57' E 004°08'0 0.0
2020-Mar-26 09:29N 51°57' E 004°08'0 0.0
2020-Mar-26 07:58N 51°57' E 004°08'0 0.0
2020-Mar-26 07:30N 51°57' E 004°08'2 4.1
2020-Mar-26 07:01N 51°58' E 004°06'815.9
2020-Mar-26 06:30N 52°01' E 003°54'917.1
2020-Mar-26 05:59N 52°04' E 003°40'917.8
2020-Mar-26 05:30N 52°08' E 003°28'1817.9
2020-Mar-26 04:31N 52°19' E 003°04'1817.7
2020-Mar-26 03:30N 52°31' E 002°42'7917.5
2020-Mar-25 23:00N 53°19' E 001°01'4518.0
2020-Mar-25 20:30N 53°38' W 000°09'11 0.8
2020-Mar-25 05:30N 53°33' E 000°09'6917.1
2020-Mar-25 01:30N 52°53' E 001°41'1019.1
2020-Mar-25 01:00N 52°48' E 001°55'918.8
2020-Mar-25 00:30N 52°44' E 002°09'2617.5
2020-Mar-24 23:00N 52°28' E 002°44'2617.5
2020-Mar-24 21:30N 52°14' E 003°20'2617.6
2020-Mar-24 20:00N 52°01' E 003°57'714.9
2020-Mar-24 19:31N 51°57' E 004°08'1 1.3
2020-Mar-24 18:59N 51°57' E 004°08'0 0.0
2020-Mar-24 17:28N 51°57' E 004°08'0 0.0
2020-Mar-24 16:58N 51°57' E 004°08'0 0.0
2020-Mar-24 15:28N 51°57' E 004°08'0 0.0
2020-Mar-24 14:00N 51°57' E 004°08'0 0.0
2020-Mar-24 13:30N 51°57' E 004°08'0 0.0
2020-Mar-24 13:00N 51°57' E 004°08'0 0.0
2020-Mar-24 09:58N 51°57' E 004°08'0 0.0
2020-Mar-24 08:28N 51°57' E 004°08'0 0.0
2020-Mar-24 08:00N 51°57' E 004°08'0 0.0
2020-Mar-24 07:30N 51°57' E 004°08'3015.2
2020-Mar-24 05:30N 52°08' E 003°22'2019.6
2020-Mar-24 04:30N 52°22' E 002°60'5618.7
2020-Mar-24 01:30N 52°58' E 001°49'1818.4
2020-Mar-24 00:30N 53°08' E 001°23'1818.2
2020-Mar-23 23:30N 53°20' E 000°60'  

Dump ship's entire track history